Time;durP1;ratioP1;P1;durP2;ratioP2;P2;SDS_P1;SDS_P2;PMS_P1;PMS_P2;Temp;Humidity;BMP_temperature;BMP_pressure;BME280_temperature;BME280_humidity;BME280_pressure;Samples;Min_cycle;Max_cycle;Signal;HPM_P1;HPM_P2
2023/06/06 00:00:50;;;;;;;;;;;;;;;30.15;31.32;94098.41;5026723;28;7271;-56
2023/06/06 00:03:21;;;;;;;;;;;;;;;30.15;31.08;94095.63;5021281;28;7011;-56
2023/06/06 00:05:49;;;;;;;;;;;;;;;30.15;31.03;94094.88;5026261;28;9064;-56
2023/06/06 00:08:19;;;;;;;;;;;;;;;30.13;31.68;94101.00;5056315;28;7358;-56
2023/06/06 00:10:47;;;;;;;;;;;;;;;30.14;30.80;94099.72;5054420;28;9025;-56
2023/06/06 00:13:13;;;;;;;;;;;;;;;30.13;31.05;94091.91;5038265;28;7044;-56
2023/06/06 00:15:40;;;;;;;;;;;;;;;30.10;30.82;94090.25;5036203;28;8712;-57
2023/06/06 00:18:07;;;;;;;;;;;;;;;30.10;31.25;94093.75;5051898;28;7625;-56
2023/06/06 00:20:35;;;;;;;;;;;;;;;30.09;30.76;94102.63;5027016;28;8522;-56
2023/06/06 00:23:04;;;;;;;;;;;;;;;30.09;30.56;94103.38;5020271;28;7282;-56
2023/06/06 00:25:30;;;;;;;;;;;;;;;30.08;30.61;94101.88;5029645;28;7255;-56
2023/06/06 00:27:58;;;;;;;;;;;;;;;30.09;31.07;94102.63;5027061;28;9024;-56
2023/06/06 00:30:25;;;;;;;;;;;;;;;30.07;31.67;94100.41;5036359;28;8717;-56
2023/06/06 00:32:51;;;;;;;;;;;;;;;30.07;31.07;94094.88;5024646;28;7251;-56
2023/06/06 00:35:17;;;;;;;;;;;;;;;30.06;30.46;94098.91;5023960;28;9346;-56
2023/06/06 00:37:48;;;;;;;;;;;;;;;30.06;30.62;94098.91;5051253;28;9026;-56
2023/06/06 00:40:13;;;;;;;;;;;;;;;30.06;30.53;94110.00;5042630;28;7446;-56
2023/06/06 00:42:41;;;;;;;;;;;;;;;30.05;30.73;94108.53;5039391;28;8065;-56
2023/06/06 00:45:08;;;;;;;;;;;;;;;30.05;30.90;94116.88;5019807;28;7296;-56
2023/06/06 00:47:34;;;;;;;;;;;;;;;30.00;31.36;94106.66;5036587;28;7350;-56
2023/06/06 00:50:01;;;;;;;;;;;;;;;30.03;30.48;94111.13;5032495;28;9347;-56
2023/06/06 00:52:30;;;;;;;;;;;;;;;30.02;30.89;94103.34;5021046;28;7251;-57
2023/06/06 00:54:58;;;;;;;;;;;;;;;30.03;30.72;94110.38;5050752;28;7308;-56
2023/06/06 00:57:26;;;;;;;;;;;;;;;30.00;31.18;94111.47;5025856;28;9475;-56
2023/06/06 00:59:53;;;;;;;;;;;;;;;30.00;30.97;94117.75;5035583;28;7220;-56
2023/06/06 01:02:24;;;;;;;;;;;;;;;29.99;30.99;94116.28;5031455;28;7114;-56
2023/06/06 01:04:50;;;;;;;;;;;;;;;29.99;30.92;94116.28;5026909;28;7589;-56
2023/06/06 01:07:18;;;;;;;;;;;;;;;29.96;30.69;94111.81;5026808;28;9182;-56
2023/06/06 01:09:46;;;;;;;;;;;;;;;29.96;30.90;94114.59;5041419;28;7229;-56
2023/06/06 01:12:24;;;;;;;;;;;;;;;29.97;30.79;94115.34;5039074;28;7260;-57
2023/06/06 01:15:17;;;;;;;;;;;;;;;29.96;30.53;94116.63;5027573;28;9003;-56
2023/06/06 01:17:46;;;;;;;;;;;;;;;29.95;31.20;94120.69;5027986;28;7686;-56
2023/06/06 01:20:34;;;;;;;;;;;;;;;29.94;31.12;94125.50;5026795;28;7099;-56
2023/06/06 01:23:02;;;;;;;;;;;;;;;29.94;31.11;94127.50;5024406;28;6859;-56
2023/06/06 01:25:34;;;;;;;;;;;;;;;29.93;31.61;94118.44;5027461;28;7265;-56
2023/06/06 01:28:04;;;;;;;;;;;;;;;29.94;31.16;94125.50;5028749;28;9155;-56
2023/06/06 01:30:36;;;;;;;;;;;;;;;29.93;31.59;94121.22;5039475;28;9017;-56
2023/06/06 01:33:51;;;;;;;;;;;;;;;29.92;31.04;94122.53;5022896;28;9468;-56
2023/06/06 01:36:58;;;;;;;;;;;;;;;29.91;31.50;94132.13;4989698;28;9394;-56
2023/06/06 01:39:43;;;;;;;;;;;;;;;29.91;30.50;94128.59;4990697;28;7296;-56
2023/06/06 01:42:35;;;;;;;;;;;;;;;29.89;30.60;94131.19;5004701;28;7045;-56
2023/06/06 01:45:06;;;;;;;;;;;;;;;29.89;31.19;94131.19;5006662;28;8975;-56
2023/06/06 01:47:35;;;;;;;;;;;;;;;29.87;30.82;94137.28;4993051;28;9196;-56
2023/06/06 01:50:32;;;;;;;;;;;;;;;29.87;31.75;94139.31;5005944;28;9230;-56
2023/06/06 01:53:08;;;;;;;;;;;;;;;29.85;30.72;94136.34;4959865;28;8038;-56
2023/06/06 01:56:13;;;;;;;;;;;;;;;29.83;31.09;94131.34;4955772;28;7046;-56
2023/06/06 01:59:09;;;;;;;;;;;;;;;29.84;31.70;94132.81;4938739;28;7487;-56
2023/06/06 02:01:36;;;;;;;;;;;;;;;29.81;30.65;94131.16;4924167;29;7049;-56
2023/06/06 02:04:04;;;;;;;;;;;;;;;29.82;30.41;94134.66;4929143;29;7439;-56
2023/06/06 02:06:35;;;;;;;;;;;;;;;29.80;31.63;94135.94;4926633;28;9251;-56
2023/06/06 02:09:20;;;;;;;;;;;;;;;29.83;30.46;94141.69;4923076;28;9375;-56
2023/06/06 02:12:05;;;;;;;;;;;;;;;29.80;31.75;94141.47;4931103;28;7232;-56
2023/06/06 02:14:51;;;;;;;;;;;;;;;29.80;31.62;94141.47;4948210;28;7375;-56
2023/06/06 02:17:17;;;;;;;;;;;;;;;29.80;31.63;94144.25;4916269;29;7242;-56
2023/06/06 02:20:12;;;;;;;;;;;;;;;29.80;31.20;94146.28;4949009;28;9058;-56
2023/06/06 02:22:39;;;;;;;;;;;;;;;29.79;31.34;94147.59;4909879;29;7294;-56
2023/06/06 02:25:08;;;;;;;;;;;;;;;29.77;31.29;94141.84;4892632;29;7315;-56
2023/06/06 02:27:35;;;;;;;;;;;;;;;29.77;31.11;94144.63;4896743;29;9045;-56
2023/06/06 02:30:10;;;;;;;;;;;;;;;29.75;30.95;94147.19;4959796;28;9291;-57
2023/06/06 02:32:45;;;;;;;;;;;;;;;29.73;30.93;94138.66;4948409;28;9084;-56
2023/06/06 02:35:14;;;;;;;;;;;;;;;29.73;30.74;94144.91;4973427;28;7372;-56
2023/06/06 02:37:49;;;;;;;;;;;;;;;29.73;30.99;94139.38;4986185;28;9028;-56
2023/06/06 02:40:15;;;;;;;;;;;;;;;29.74;31.31;94145.69;4992499;28;9042;-56
2023/06/06 02:42:48;;;;;;;;;;;;;;;29.73;30.81;94139.38;5004985;28;9152;-56
2023/06/06 02:45:15;;;;;;;;;;;;;;;29.74;31.49;94142.91;4985433;28;7217;-56
2023/06/06 02:48:02;;;;;;;;;;;;;;;29.72;30.70;94142.69;4999204;28;7045;-56
2023/06/06 02:50:59;;;;;;;;;;;;;;;29.70;30.35;94136.94;4993336;28;7462;-56
2023/06/06 02:53:27;;;;;;;;;;;;;;;29.69;30.43;94136.19;4956466;28;7493;-56
2023/06/06 02:56:08;;;;;;;;;;;;;;;29.70;31.33;94150.81;4967776;28;9620;-56
2023/06/06 02:58:52;;;;;;;;;;;;;;;29.69;31.65;94154.84;4975814;28;7281;-56
2023/06/06 03:01:25;;;;;;;;;;;;;;;29.68;31.58;94148.59;5005199;28;8900;-56
2023/06/06 03:03:55;;;;;;;;;;;;;;;29.69;30.99;94149.31;4969813;28;9451;-56
2023/06/06 03:06:22;;;;;;;;;;;;;;;29.67;31.00;94146.34;4992377;28;7048;-56
2023/06/06 03:08:58;;;;;;;;;;;;;;;29.67;31.39;94155.41;4992500;28;9056;-56
2023/06/06 03:11:26;;;;;;;;;;;;;;;29.66;31.54;94147.66;4993724;28;6992;-56
2023/06/06 03:13:52;;;;;;;;;;;;;;;29.67;30.73;94149.13;4975244;28;9391;-56
2023/06/06 03:16:19;;;;;;;;;;;;;;;29.64;31.53;94162.06;5002554;28;9036;-56
2023/06/06 03:18:51;;;;;;;;;;;;;;;29.62;31.32;94161.13;4990631;28;8299;-56
2023/06/06 03:21:17;;;;;;;;;;;;;;;29.64;30.90;94169.63;4995288;28;7298;-56
2023/06/06 03:23:45;;;;;;;;;;;;;;;29.63;31.57;94162.59;5003104;28;9004;-56
2023/06/06 03:26:26;;;;;;;;;;;;;;;29.62;30.76;94167.38;4967778;28;7226;-56
2023/06/06 03:28:56;;;;;;;;;;;;;;;29.63;30.59;94170.91;5013281;28;8926;-56
2023/06/06 03:31:23;;;;;;;;;;;;;;;29.61;31.59;94162.38;5037064;28;9086;-56
2023/06/06 03:33:50;;;;;;;;;;;;;;;29.61;30.45;94170.69;5037616;28;7045;-56
2023/06/06 03:36:16;;;;;;;;;;;;;;;29.60;30.39;94169.22;5021771;28;7212;-56
2023/06/06 03:38:47;;;;;;;;;;;;;;;29.59;30.67;94174.03;5022354;28;7260;-56
2023/06/06 03:41:14;;;;;;;;;;;;;;;29.57;30.59;94159.22;5029547;28;9333;-56
2023/06/06 03:43:44;;;;;;;;;;;;;;;29.59;30.81;94168.47;5031009;28;8881;-56
2023/06/06 03:46:10;;;;;;;;;;;;;;;29.57;30.89;94173.81;5034493;28;9169;-56
2023/06/06 03:48:38;;;;;;;;;;;;;;;29.58;30.86;94166.25;5036987;28;7281;-56
2023/06/06 03:51:04;;;;;;;;;;;;;;;29.57;31.00;94171.06;5019319;28;7037;-56
2023/06/06 03:53:31;;;;;;;;;;;;;;;29.58;31.26;94171.81;5022410;28;7168;-56
2023/06/06 03:55:59;;;;;;;;;;;;;;;29.56;30.55;94166.78;5053187;28;7335;-56
2023/06/06 03:58:25;;;;;;;;;;;;;;;29.57;30.70;94173.06;5029089;28;7023;-56
2023/06/06 04:00:53;;;;;;;;;;;;;;;29.57;31.52;94170.31;5044370;28;9314;-56
2023/06/06 04:03:48;;;;;;;;;;;;;;;29.56;30.56;94168.81;5040909;28;8824;-56
2023/06/06 04:06:30;;;;;;;;;;;;;;;29.56;31.08;94171.56;4952495;28;8319;-56
2023/06/06 04:09:08;;;;;;;;;;;;;;;29.54;31.56;94172.13;4967292;28;9054;-57
2023/06/06 04:11:44;;;;;;;;;;;;;;;29.52;31.31;94168.41;4971341;28;9086;-56
2023/06/06 04:14:25;;;;;;;;;;;;;;;29.52;30.80;94171.19;4967812;28;8979;-56
2023/06/06 04:17:04;;;;;;;;;;;;;;;29.53;30.90;94176.19;4968002;28;7004;-56
2023/06/06 04:19:36;;;;;;;;;;;;;;;29.50;30.87;94166.19;4946026;28;8877;-56
2023/06/06 04:22:11;;;;;;;;;;;;;;;29.51;31.14;94176.00;4950072;28;7638;-56
2023/06/06 04:24:58;;;;;;;;;;;;;;;29.51;31.66;94183.56;4963919;28;7279;-56
2023/06/06 04:27:37;;;;;;;;;;;;;;;29.52;31.01;94185.78;4965227;28;7996;-56
2023/06/06 04:30:22;;;;;;;;;;;;;;;29.51;30.67;94189.09;4953958;28;7259;-56
2023/06/06 04:32:53;;;;;;;;;;;;;;;29.48;30.38;94179.84;4951342;28;7176;-56
2023/06/06 04:35:33;;;;;;;;;;;;;;;29.51;30.89;94189.09;4968816;28;7579;-56
2023/06/06 04:38:18;;;;;;;;;;;;;;;29.51;30.49;94186.34;4966941;28;7590;-56
2023/06/06 04:41:39;;;;;;;;;;;;;;;29.50;31.44;94193.16;4965456;28;7296;-56
2023/06/06 04:44:06;;;;;;;;;;;;;;;29.48;31.52;94185.38;4971129;28;7272;-56
2023/06/06 04:46:52;;;;;;;;;;;;;;;29.47;31.29;94197.03;4949930;28;9437;-56
2023/06/06 04:49:30;;;;;;;;;;;;;;;29.48;31.48;94190.19;4950769;28;9719;-56
2023/06/06 04:51:59;;;;;;;;;;;;;;;29.50;30.55;94196.66;4966483;28;9806;-56
2023/06/06 04:54:25;;;;;;;;;;;;;;;29.48;31.12;94193.69;4949356;28;9127;-56
2023/06/06 04:56:52;;;;;;;;;;;;;;;29.48;31.01;94198.50;4967527;28;9906;-56
2023/06/06 04:59:22;;;;;;;;;;;;;;;29.48;31.77;94196.47;4968693;28;8987;-56
2023/06/06 05:01:57;;;;;;;;;;;;;;;29.50;32.22;94201.47;4965678;28;9110;-56
2023/06/06 05:04:32;;;;;;;;;;;;;;;29.50;33.55;94198.69;4952135;28;7243;-56
2023/06/06 05:07:10;;;;;;;;;;;;;;;29.53;32.98;94192.06;4952478;28;8035;-56
2023/06/06 05:09:48;;;;;;;;;;;;;;;29.50;33.34;94193.91;4954800;28;7356;-56
2023/06/06 05:12:18;;;;;;;;;;;;;;;29.49;32.65;94197.94;4969992;28;7242;-56
2023/06/06 05:14:52;;;;;;;;;;;;;;;29.46;32.25;94199.03;4964520;28;7609;-56
2023/06/06 05:17:22;;;;;;;;;;;;;;;29.50;32.55;94198.69;4965819;28;9444;-56
2023/06/06 05:20:00;;;;;;;;;;;;;;;29.49;31.98;94197.94;5004844;28;7054;-57
2023/06/06 05:22:35;;;;;;;;;;;;;;;29.49;33.07;94200.72;5021658;28;7087;-56
2023/06/06 05:25:21;;;;;;;;;;;;;;;29.49;31.92;94202.75;5028784;28;7313;-56
2023/06/06 05:27:52;;;;;;;;;;;;;;;29.48;33.34;94201.25;5057992;28;8767;-56
2023/06/06 05:30:31;;;;;;;;;;;;;;;29.47;33.18;94205.34;5024692;28;7026;-56
2023/06/06 05:32:58;;;;;;;;;;;;;;;29.46;32.53;94206.59;5043174;28;9350;-56
2023/06/06 05:35:24;;;;;;;;;;;;;;;29.48;33.13;94206.81;5055027;28;8954;-56
2023/06/06 05:37:50;;;;;;;;;;;;;;;29.47;32.63;94210.88;5024019;28;8195;-56
2023/06/06 05:40:30;;;;;;;;;;;;;;;29.48;33.07;94206.81;5044957;28;7239;-56
2023/06/06 05:43:33;;;;;;;;;;;;;;;29.47;32.81;94213.66;5034502;28;7014;-56
2023/06/06 05:46:47;;;;;;;;;;;;;;;29.47;32.13;94216.41;4962762;28;7281;-56
2023/06/06 05:49:24;;;;;;;;;;;;;;;29.42;32.18;94200.66;4914286;29;6988;-56
2023/06/06 05:52:41;;;;;;;;;;;;;;;29.41;33.04;94216.53;4898779;29;9419;-56
2023/06/06 05:55:10;;;;;;;;;;;;;;;29.37;32.28;94215.38;4863366;29;6943;-56
2023/06/06 05:57:41;;;;;;;;;;;;;;;29.34;32.08;94208.91;4851214;29;7058;-56
2023/06/06 06:00:42;;;;;;;;;;;;;;;29.35;32.10;94212.41;4865630;29;7286;-56
2023/06/06 06:03:41;;;;;;;;;;;;;;;29.33;32.03;94218.50;4806302;29;7043;-56
2023/06/06 06:06:08;;;;;;;;;;;;;;;29.32;32.41;94216.28;4734458;30;7512;-56
2023/06/06 06:09:12;;;;;;;;;;;;;;;29.32;32.40;94211.47;4719443;30;7636;-56
2023/06/06 06:11:48;;;;;;;;;;;;;;;29.32;32.13;94219.06;4735479;30;7804;-56
2023/06/06 06:14:25;;;;;;;;;;;;;;;29.33;32.42;94217.75;4720806;30;7610;-56
2023/06/06 06:17:07;;;;;;;;;;;;;;;29.31;33.35;94220.31;4748900;30;8435;-56
2023/06/06 06:19:34;;;;;;;;;;;;;;;29.29;32.51;94211.81;4764073;29;7405;-56
2023/06/06 06:22:25;;;;;;;;;;;;;;;29.29;32.99;94223.63;4801218;29;8674;-56
2023/06/06 06:25:05;;;;;;;;;;;;;;;29.31;32.67;94220.31;4801805;29;7216;-56
2023/06/06 06:27:48;;;;;;;;;;;;;;;29.29;33.72;94231.94;4858582;29;7221;-56
2023/06/06 06:30:15;;;;;;;;;;;;;;;29.30;32.71;94225.13;4859163;29;7380;-56
2023/06/06 06:32:57;;;;;;;;;;;;;;;29.31;33.54;94229.38;4909744;29;7242;-56
2023/06/06 06:35:26;;;;;;;;;;;;;;;29.29;33.54;94239.50;4927932;29;9496;-56
2023/06/06 06:37:52;;;;;;;;;;;;;;;29.29;33.69;94234.72;4938151;28;7058;-56
2023/06/06 06:40:24;;;;;;;;;;;;;;;29.27;34.18;94233.78;4964319;28;9059;-56
2023/06/06 06:42:51;;;;;;;;;;;;;;;29.30;32.81;94224.38;5008860;28;9457;-56
2023/06/06 06:45:20;;;;;;;;;;;;;;;29.29;33.50;94222.88;5018133;28;7123;-56
2023/06/06 06:47:49;;;;;;;;;;;;;;;29.30;33.42;94235.44;5051652;28;8982;-56
2023/06/06 06:50:15;;;;;;;;;;;;;;;29.31;34.09;94237.69;5026875;28;7225;-56
2023/06/06 06:52:55;;;;;;;;;;;;;;;29.30;32.96;94241.72;5057835;28;7066;-56
2023/06/06 06:55:41;;;;;;;;;;;;;;;29.30;33.81;94238.22;5041134;28;9419;-56
2023/06/06 06:58:09;;;;;;;;;;;;;;;29.30;33.35;94235.44;5036891;28;7238;-56
2023/06/06 07:00:41;;;;;;;;;;;;;;;29.27;32.96;94231.75;5041949;28;7313;-57
2023/06/06 07:03:18;;;;;;;;;;;;;;;29.29;33.41;94236.75;5030262;28;7084;-56
2023/06/06 07:05:57;;;;;;;;;;;;;;;29.27;33.13;94239.31;5023063;28;7180;-56
2023/06/06 07:08:31;;;;;;;;;;;;;;;29.28;33.33;94243.56;5032904;28;7218;-56
2023/06/06 07:11:30;;;;;;;;;;;;;;;29.28;34.02;94243.56;5059964;28;7118;-56
2023/06/06 07:13:57;;;;;;;;;;;;;;;29.27;33.41;94236.53;5008767;28;9151;-56
2023/06/06 07:16:25;;;;;;;;;;;;;;;29.27;32.82;94236.53;5027409;28;9072;-56
2023/06/06 07:18:53;;;;;;;;;;;;;;;29.28;34.07;94238.00;5009056;28;7239;-56
2023/06/06 07:21:22;;;;;;;;;;;;;;;29.28;33.66;94244.31;5009204;28;9031;-56
2023/06/06 07:23:49;;;;;;;;;;;;;;;29.29;33.99;94250.59;5008456;28;9005;-56
2023/06/06 07:26:19;;;;;;;;;;;;;;;29.28;33.44;94243.56;5009774;28;7492;-56
2023/06/06 07:28:47;;;;;;;;;;;;;;;29.25;32.81;94241.88;5011051;28;9369;-56
2023/06/06 07:31:15;;;;;;;;;;;;;;;29.21;33.23;94233.16;5014662;28;7245;-56
2023/06/06 07:33:49;;;;;;;;;;;;;;;29.27;32.95;94247.63;5015390;28;9234;-56
2023/06/06 07:36:30;;;;;;;;;;;;;;;29.26;32.68;94252.41;5016758;28;7042;-56
2023/06/06 07:39:27;;;;;;;;;;;;;;;29.28;32.90;94243.56;5031757;28;9910;-56
2023/06/06 07:41:53;;;;;;;;;;;;;;;29.27;32.88;94248.38;4969623;28;9329;-56
2023/06/06 07:44:20;;;;;;;;;;;;;;;29.27;32.87;94242.09;4954957;28;8935;-56
2023/06/06 07:46:46;;;;;;;;;;;;;;;29.22;32.87;94240.16;4954202;28;9430;-56
2023/06/06 07:49:23;;;;;;;;;;;;;;;29.26;32.65;94235.78;4973630;28;7344;-56
2023/06/06 07:51:50;;;;;;;;;;;;;;;29.28;32.82;94238.00;4999403;28;8956;-55
2023/06/06 07:54:16;;;;;;;;;;;;;;;29.27;33.05;94248.38;4974563;28;9155;-56
2023/06/06 07:57:16;;;;;;;;;;;;;;;29.26;33.73;94237.81;4971851;28;6843;-56
2023/06/06 07:59:44;;;;;;;;;;;;;;;29.23;33.27;94236.84;4917262;29;7063;-56
2023/06/06 08:02:19;;;;;;;;;;;;;;;29.25;32.66;94239.09;4933387;29;7536;-56
2023/06/06 08:05:03;;;;;;;;;;;;;;;29.26;32.85;94238.56;4916907;29;7148;-57
2023/06/06 08:07:30;;;;;;;;;;;;;;;29.28;33.30;94243.56;4947168;28;9276;-57
2023/06/06 08:09:59;;;;;;;;;;;;;;;29.27;32.60;94236.53;4921068;29;7431;-57
2023/06/06 08:12:40;;;;;;;;;;;;;;;29.24;32.76;94232.06;4934437;28;9078;-57
2023/06/06 08:15:09;;;;;;;;;;;;;;;29.26;32.63;94235.03;4918511;29;9342;-57
2023/06/06 08:17:45;;;;;;;;;;;;;;;29.23;32.52;94236.84;4940260;28;9515;-57
2023/06/06 08:20:27;;;;;;;;;;;;;;;29.25;33.16;94234.31;4955285;28;6989;-58
2023/06/06 08:22:54;;;;;;;;;;;;;;;29.22;32.38;94232.63;4968123;28;7316;-57
2023/06/06 08:25:21;;;;;;;;;;;;;;;29.25;32.68;94239.09;4983930;28;7343;-57
2023/06/06 08:27:50;;;;;;;;;;;;;;;29.26;32.98;94240.59;4965971;28;7277;-57
2023/06/06 08:30:16;;;;;;;;;;;;;;;29.24;31.96;94243.91;4962224;28;7046;-57
2023/06/06 08:32:53;;;;;;;;;;;;;;;29.24;32.34;94232.81;4986154;28;7267;-57
2023/06/06 08:35:33;;;;;;;;;;;;;;;29.24;32.29;94238.34;4984513;28;9596;-57
2023/06/06 08:38:13;;;;;;;;;;;;;;;29.24;32.39;94237.59;5032877;28;7107;-57
2023/06/06 08:40:52;;;;;;;;;;;;;;;29.22;32.52;94234.63;5032300;28;8649;-57
2023/06/06 08:43:26;;;;;;;;;;;;;;;29.25;32.53;94239.09;5029583;28;7138;-56
2023/06/06 08:45:58;;;;;;;;;;;;;;;29.26;32.22;94240.59;5037577;28;9800;-57
2023/06/06 08:48:28;;;;;;;;;;;;;;;29.26;32.39;94237.81;5053316;28;7151;-56
2023/06/06 08:50:56;;;;;;;;;;;;;;;29.27;32.81;94248.38;5018225;28;7274;-56
2023/06/06 08:53:25;;;;;;;;;;;;;;;29.27;32.91;94242.84;5037610;28;9146;-57
2023/06/06 08:56:30;;;;;;;;;;;;;;;29.27;31.81;94239.31;5030013;28;7369;-56
2023/06/06 08:59:18;;;;;;;;;;;;;;;29.27;32.20;94236.53;5013680;28;7056;-56
2023/06/06 09:01:58;;;;;;;;;;;;;;;29.26;32.61;94238.56;5013776;28;8719;-57
2023/06/06 09:04:25;;;;;;;;;;;;;;;29.25;32.14;94237.09;5029415;28;8854;-57
2023/06/06 09:06:56;;;;;;;;;;;;;;;29.26;32.14;94232.28;5011758;28;7262;-56
2023/06/06 09:09:48;;;;;;;;;;;;;;;29.27;32.22;94239.31;5011497;28;7490;-57
2023/06/06 09:12:38;;;;;;;;;;;;;;;29.25;32.41;94228.78;5028547;28;9091;-56
2023/06/06 09:15:08;;;;;;;;;;;;;;;29.28;32.03;94238.00;5028036;28;6994;-56
2023/06/06 09:18:00;;;;;;;;;;;;;;;29.29;33.29;94236.75;5029392;28;7036;-57
2023/06/06 09:20:42;;;;;;;;;;;;;;;29.27;32.82;94231.75;5028053;28;7339;-56
2023/06/06 09:23:46;;;;;;;;;;;;;;;29.29;32.70;94228.44;5028528;28;7058;-56
2023/06/06 09:26:21;;;;;;;;;;;;;;;29.29;32.54;94234.72;5010989;28;9163;-57
2023/06/06 09:28:55;;;;;;;;;;;;;;;29.30;33.06;94225.13;5029425;28;8404;-57
2023/06/06 09:31:30;;;;;;;;;;;;;;;29.31;33.13;94225.88;5032666;28;9041;-57
2023/06/06 09:33:58;;;;;;;;;;;;;;;29.32;32.89;94214.22;5039330;28;9033;-57
2023/06/06 09:36:28;;;;;;;;;;;;;;;29.29;32.61;94214.59;5054731;28;9421;-57
2023/06/06 09:39:16;;;;;;;;;;;;;;;29.32;33.29;94211.47;5043024;28;7458;-57
2023/06/06 09:41:46;;;;;;;;;;;;;;;29.33;33.38;94217.75;5027363;28;9504;-56
2023/06/06 09:44:20;;;;;;;;;;;;;;;29.34;32.25;94213.72;5031458;28;9384;-56
2023/06/06 09:47:06;;;;;;;;;;;;;;;29.34;33.25;94206.13;5057531;28;7323;-57
2023/06/06 09:49:33;;;;;;;;;;;;;;;29.36;33.03;94211.16;5039812;28;9134;-57
2023/06/06 09:51:59;;;;;;;;;;;;;;;29.35;33.23;94210.41;5029195;28;9053;-57
2023/06/06 09:54:26;;;;;;;;;;;;;;;29.36;32.90;94211.88;5053862;28;7093;-57
2023/06/06 09:56:58;;;;;;;;;;;;;;;29.35;33.22;94207.63;5025440;28;8009;-56
2023/06/06 09:59:28;;;;;;;;;;;;;;;29.36;33.31;94209.09;5024994;28;9033;-57
2023/06/06 10:02:04;;;;;;;;;;;;;;;29.36;33.15;94208.38;5036736;28;7141;-57
2023/06/06 10:04:34;;;;;;;;;;;;;;;29.36;32.92;94209.09;5024995;28;9198;-57
2023/06/06 10:07:06;;;;;;;;;;;;;;;29.33;32.60;94204.66;5020940;28;8320;-56
2023/06/06 10:09:34;;;;;;;;;;;;;;;29.38;33.31;94208.56;5036164;28;9216;-57
2023/06/06 10:12:00;;;;;;;;;;;;;;;29.37;33.32;94204.31;5038766;28;9057;-57
2023/06/06 10:14:30;;;;;;;;;;;;;;;29.38;33.35;94203.03;5027080;28;8630;-57
2023/06/06 10:17:01;;;;;;;;;;;;;;;29.40;33.11;94206.75;5059700;28;9026;-57
2023/06/06 10:19:30;;;;;;;;;;;;;;;29.39;33.73;94205.25;5057688;28;9090;-57
2023/06/06 10:22:17;;;;;;;;;;;;;;;29.41;32.73;94205.47;5023377;28;7318;-56
2023/06/06 10:24:45;;;;;;;;;;;;;;;29.43;32.54;94210.44;5028144;28;8222;-57
2023/06/06 10:27:24;;;;;;;;;;;;;;;29.44;32.73;94198.84;5041013;28;7663;-57
2023/06/06 10:29:59;;;;;;;;;;;;;;;29.45;32.79;94203.09;5043239;28;7077;-57
2023/06/06 10:32:58;;;;;;;;;;;;;;;29.46;33.04;94201.81;5028552;28;7032;-57
2023/06/06 10:35:34;;;;;;;;;;;;;;;29.47;32.60;94206.06;5024657;28;7179;-57
2023/06/06 10:38:16;;;;;;;;;;;;;;;29.47;32.96;94205.34;5025934;28;7528;-57
2023/06/06 10:40:50;;;;;;;;;;;;;;;29.45;32.53;94194.78;5041442;28;7387;-57
2023/06/06 10:44:06;;;;;;;;;;;;;;;29.49;32.70;94197.22;5029244;28;7136;-57
2023/06/06 10:46:40;;;;;;;;;;;;;;;29.50;31.54;94198.69;5026543;28;9407;-57
2023/06/06 10:49:30;;;;;;;;;;;;;;;29.50;32.88;94204.97;5031165;28;9278;-57
2023/06/06 10:52:05;;;;;;;;;;;;;;;29.50;32.13;94199.44;5041262;28;8908;-57
2023/06/06 10:54:34;;;;;;;;;;;;;;;29.51;31.92;94203.72;5030116;28;6994;-56
2023/06/06 10:57:05;;;;;;;;;;;;;;;29.52;32.43;94199.66;5023129;28;9857;-57
2023/06/06 10:59:39;;;;;;;;;;;;;;;29.52;32.74;94190.56;5055367;28;7295;-57
2023/06/06 11:02:45;;;;;;;;;;;;;;;29.55;32.31;94200.59;5057995;28;7846;-57
2023/06/06 11:05:21;;;;;;;;;;;;;;;29.55;32.58;94192.28;5047153;28;7302;-56
2023/06/06 11:07:50;;;;;;;;;;;;;;;29.55;32.33;94187.47;5026862;28;7102;-57
2023/06/06 11:10:22;;;;;;;;;;;;;;;29.59;31.85;94187.13;5031533;28;6994;-57
2023/06/06 11:12:50;;;;;;;;;;;;;;;29.56;32.37;94186.19;5024559;28;7224;-56
2023/06/06 11:15:30;;;;;;;;;;;;;;;29.57;31.59;94186.94;5028622;28;9288;-56
2023/06/06 11:18:01;;;;;;;;;;;;;;;29.58;31.34;94186.38;5038966;28;7293;-57
2023/06/06 11:20:28;;;;;;;;;;;;;;;29.59;31.39;94179.56;5021005;28;7269;-57
2023/06/06 11:23:04;;;;;;;;;;;;;;;29.59;31.59;94185.13;5023433;28;9054;-57
2023/06/06 11:25:35;;;;;;;;;;;;;;;29.60;32.29;94175.50;5054439;28;6869;-57
2023/06/06 11:28:08;;;;;;;;;;;;;;;29.62;32.13;94177.75;5026845;28;9198;-56
2023/06/06 11:30:45;;;;;;;;;;;;;;;29.63;30.95;94179.97;5033577;28;9014;-57
2023/06/06 11:33:16;;;;;;;;;;;;;;;29.65;31.40;94179.41;5034396;28;9709;-56
2023/06/06 11:35:54;;;;;;;;;;;;;;;29.66;31.76;94178.13;5034704;28;8740;-57
2023/06/06 11:38:20;;;;;;;;;;;;;;;29.67;31.61;94183.13;5027642;28;8766;-57
2023/06/06 11:40:50;;;;;;;;;;;;;;;29.66;31.59;94175.38;5036809;28;8888;-57
2023/06/06 11:43:16;;;;;;;;;;;;;;;29.65;32.27;94182.19;5022841;28;8836;-57
2023/06/06 11:46:02;;;;;;;;;;;;;;;29.64;32.42;94178.69;5057334;28;7056;-57
2023/06/06 11:48:29;;;;;;;;;;;;;;;29.62;32.01;94174.97;5032538;28;7337;-57
2023/06/06 11:51:14;;;;;;;;;;;;;;;29.66;32.51;94169.81;5030252;28;8213;-57
2023/06/06 11:53:48;;;;;;;;;;;;;;;29.64;32.90;94181.47;5034124;28;7054;-57
2023/06/06 11:56:19;;;;;;;;;;;;;;;29.64;32.42;94180.72;5028807;28;6861;-57
2023/06/06 11:58:51;;;;;;;;;;;;;;;29.62;31.29;94177.75;5047468;28;7243;-57
2023/06/06 12:01:18;;;;;;;;;;;;;;;29.61;30.97;94167.94;5042124;28;9034;-57
2023/06/06 12:03:51;;;;;;;;;;;;;;;29.64;31.61;94175.91;5059326;28;7369;-57
2023/06/06 12:06:24;;;;;;;;;;;;;;;29.67;30.50;94168.53;5042749;28;8201;-57
2023/06/06 12:08:53;;;;;;;;;;;;;;;29.70;29.87;94168.19;5027196;28;7403;-57
2023/06/06 12:11:29;;;;;;;;;;;;;;;29.71;30.17;94177.25;5031729;28;8688;-57
2023/06/06 12:14:11;;;;;;;;;;;;;;;29.75;30.09;94180.47;5042101;28;9331;-57
2023/06/06 12:16:41;;;;;;;;;;;;;;;29.78;29.93;94174.56;5025685;28;7488;-57
2023/06/06 12:19:19;;;;;;;;;;;;;;;29.78;29.12;94169.00;5032655;28;9188;-56
2023/06/06 12:21:51;;;;;;;;;;;;;;;29.80;29.71;94162.91;5057832;28;8749;-57
2023/06/06 12:24:35;;;;;;;;;;;;;;;29.80;29.26;94154.59;5027666;28;7171;-57
2023/06/06 12:27:03;;;;;;;;;;;;;;;29.84;29.37;94159.81;5031560;28;7144;-57
2023/06/06 12:29:55;;;;;;;;;;;;;;;29.85;28.39;94159.25;5050407;28;7281;-57
2023/06/06 12:32:29;;;;;;;;;;;;;;;29.87;28.25;94159.47;5030796;28;9328;-57
2023/06/06 12:35:07;;;;;;;;;;;;;;;29.87;27.64;94151.13;5029542;28;7470;-57
2023/06/06 12:37:39;;;;;;;;;;;;;;;29.88;28.81;94149.88;5023996;28;7060;-57
2023/06/06 12:40:27;;;;;;;;;;;;;;;29.89;28.87;94151.34;5041751;28;9429;-57
2023/06/06 12:43:04;;;;;;;;;;;;;;;29.89;27.88;94154.09;5041160;28;7165;-57
2023/06/06 12:45:40;;;;;;;;;;;;;;;29.91;29.25;94148.00;5034941;28;7506;-57
2023/06/06 12:48:07;;;;;;;;;;;;;;;29.91;29.71;94139.69;5022969;28;8725;-57
2023/06/06 12:50:35;;;;;;;;;;;;;;;29.92;28.87;94143.97;5039969;28;7520;-57
2023/06/06 12:53:03;;;;;;;;;;;;;;;29.93;27.79;94154.50;5028930;28;7252;-57
2023/06/06 12:55:29;;;;;;;;;;;;;;;29.94;27.68;94147.69;5056638;28;7532;-56
2023/06/06 12:57:57;;;;;;;;;;;;;;;29.97;29.42;94137.53;5030776;28;7619;-56
2023/06/06 13:00:30;;;;;;;;;;;;;;;30.00;27.33;94145.50;5055278;28;8812;-56
2023/06/06 13:02:56;;;;;;;;;;;;;;;30.02;27.46;94145.69;5028706;28;9028;-56
2023/06/06 13:05:22;;;;;;;;;;;;;;;30.05;28.39;94152.16;5037720;28;7488;-56
2023/06/06 13:07:50;;;;;;;;;;;;;;;30.06;29.58;94137.03;5022917;28;7588;-56
2023/06/06 13:10:19;;;;;;;;;;;;;;;30.09;28.86;94147.75;5030828;28;7301;-56
2023/06/06 13:12:49;;;;;;;;;;;;;;;30.10;27.96;94140.91;5040203;28;8420;-56
2023/06/06 13:15:15;;;;;;;;;;;;;;;30.10;28.10;94140.91;5025915;28;8600;-56
2023/06/06 13:17:41;;;;;;;;;;;;;;;30.11;27.11;94145.19;5042952;28;9664;-55
2023/06/06 13:20:10;;;;;;;;;;;;;;;30.13;27.04;94139.81;5033084;28;7192;-55
2023/06/06 13:22:37;;;;;;;;;;;;;;;30.17;27.04;94142.25;5040395;28;7017;-56
2023/06/06 13:25:03;;;;;;;;;;;;;;;30.18;27.15;94138.19;5050897;28;7280;-56
2023/06/06 13:27:30;;;;;;;;;;;;;;;30.19;27.93;94134.84;5036868;28;8783;-55
2023/06/06 13:29:56;;;;;;;;;;;;;;;30.24;28.58;94141.53;5035288;28;7582;-56
2023/06/06 13:32:22;;;;;;;;;;;;;;;30.22;28.41;94135.81;5049712;28;7055;-56
2023/06/06 13:34:49;;;;;;;;;;;;;;;30.24;28.37;94136.75;5041526;28;9062;-56
2023/06/06 13:37:21;;;;;;;;;;;;;;;30.28;28.24;94130.81;5026718;28;8261;-56